Shepherdstown, WV (25443)

12:03 AM EDT on September 25, 2016 (GMT -0400)
Maddex Farm | | Change Station

Elev 453 ft 39.44 °N, 77.82 °W | Updated 11 minutes ago

Clear
Clear
55.5 °F
Feels Like 55.5 °F
N
0.0
Wind Variable Wind from ESE
Gusts 0.0 mph

Today
High -- | Low -- °F
--% Chance of Precip.
Yesterday
High -- | Low -- °F
Precip. -- in
Pressure 30.15 in
Visibility 10.0 miles
Clouds Clear
Dew Point 54 °F
Humidity 94%
Rainfall in
Snow Depth Not available.
7:02 AM 7:02 PM
Waning Crescent, 31% visible
METAR KMRB 250353Z AUTO 00000KT 10SM CLR 14/10 A3016 RMK AO2 SLP210 T01390100 TSNO
Pressure 30.15 in
Visibility 10.0 miles
Clouds Clear
Dew Point 54 °F
Humidity 94%
Rainfall in
Snow Depth Not available.
7:02 AM 7:02 PM
Waning Crescent, 31% visible
METAR KMRB 250353Z AUTO 00000KT 10SM CLR 14/10 A3016 RMK AO2 SLP210 T01390100 TSNO

10-Day Weather Forecast

Almanac

Astronomy

Sep. 25, 2016 Rise Set
Actual Time
Civil Twilight
Nautical Twilight
Astronomical Twilight
Moon
Length of Visible Light
Length of Day
Tomorrow will be .
, % of the Moon is Illuminated

Today's Extremes

State Highs State Lows

Community

WunderPhotos

Upload Photos

1,941,543 photos uploaded!

WunderBlog® & News

Nearby

Air Quality

  Air Quality AQ Index Pollutant
Not available.

Snow Depth

Station Depth Elevation

Earthquake Activity

City Distance Mag. Time & Date
Minimum magnitude displayed is 2.5.

Coastal Water Temperatures

Place Temperature

Stations

Nearby Weather Stations

Station Location Temp. Windchill Dew Point Humidity Wind Precip. Elev Updated Type
                   

Watches & Warnings

There are currently no watches in effect.